Terminal Aerodrome Forecast
Issued by NWS Knoxville/Tri Cities, TN

Home | Current Version | Previous Version | Text Only | Print | Product List | Glossary On
Versions: 1 2 3 4 5 6 7 8 9 10 11 12 13
000
FTUS44 KMRX 211121
TAFTRI
TAF
KTRI 211121Z 2112/2212 VRB05KT P6SM BKN060 BKN250
     FM211600 23009KT P6SM VCSH BKN035
     FM220000 VRB03KT P6SM VCSH BKN030=

USA.gov is the U.S. government's official web portal to all federal, state and local government web resources and services.